createdAt,value
2018-07-05T00:02:27.830Z,5.97
2018-07-05T00:05:07.400Z,5.90
2018-07-05T00:07:46.917Z,5.87
2018-07-05T00:10:26.581Z,6.23
2018-07-05T00:13:00.268Z,6.60
2018-07-05T00:15:40.049Z,6.50
2018-07-05T00:18:13.815Z,6.80
2018-07-05T00:20:53.448Z,7.13
2018-07-05T00:23:33.158Z,7.10
2018-07-05T00:26:12.811Z,7.13
2018-07-05T00:28:52.474Z,6.80
2018-07-05T00:31:31.997Z,7.93
2018-07-05T00:34:11.665Z,7.20
2018-07-05T00:36:51.296Z,7.67
2018-07-05T00:39:30.875Z,7.50
2018-07-05T00:42:10.463Z,7.93
2018-07-05T00:44:49.994Z,8.00
2018-07-05T00:47:29.637Z,8.60
2018-07-05T00:50:09.353Z,8.20
2018-07-05T00:52:48.987Z,8.80
2018-07-05T00:55:28.552Z,7.57
2018-07-05T00:58:08.197Z,7.67
2018-07-05T01:00:47.814Z,7.47
2018-07-05T01:03:27.567Z,7.33
2018-07-05T01:06:07.176Z,7.60
2018-07-05T01:08:46.683Z,7.17
2018-07-05T01:11:26.170Z,7.47
2018-07-05T01:14:05.841Z,8.07
2018-07-05T01:16:45.594Z,8.53
2018-07-05T01:19:25.240Z,8.30
2018-07-05T01:22:04.852Z,8.93
2018-07-05T01:24:44.466Z,10.47
2018-07-05T01:27:24.138Z,9.10
2018-07-05T01:30:03.721Z,7.60
2018-07-05T01:32:43.619Z,7.30
2018-07-05T01:35:23.226Z,7.90
2018-07-05T01:38:02.907Z,7.87
2018-07-05T01:40:42.556Z,7.00
2018-07-05T01:43:22.198Z,7.00
2018-07-05T01:46:01.889Z,7.97
2018-07-05T01:48:41.533Z,7.93
2018-07-05T01:51:21.174Z,7.73
2018-07-05T01:54:00.800Z,8.10
2018-07-05T01:56:40.380Z,8.70
2018-07-05T01:59:20.043Z,8.30
2018-07-05T02:01:59.707Z,8.50
2018-07-05T02:04:39.342Z,8.50
2018-07-05T02:07:18.933Z,8.87
2018-07-05T02:09:58.982Z,9.40
2018-07-05T02:12:38.793Z,9.37
2018-07-05T02:15:18.459Z,11.00
2018-07-05T02:17:58.121Z,10.30
2018-07-05T02:20:37.761Z,9.30
2018-07-05T02:23:17.430Z,9.00
2018-07-05T02:25:57.076Z,8.83
2018-07-05T02:28:36.773Z,8.83
2018-07-05T02:31:16.410Z,8.60
2018-07-05T02:33:58.884Z,8.03
2018-07-05T02:36:38.625Z,9.53
2018-07-05T02:39:23.731Z,9.77
2018-07-05T02:42:03.477Z,9.60
2018-07-05T02:44:43.114Z,9.17
2018-07-05T02:47:23.024Z,10.07
2018-07-05T02:50:02.714Z,10.23
2018-07-05T02:52:42.350Z,11.23
2018-07-05T02:55:21.996Z,10.63
2018-07-05T02:58:01.656Z,10.13
2018-07-05T03:00:44.558Z,9.97
2018-07-05T03:03:25.624Z,9.80
2018-07-05T03:06:05.357Z,10.43
2018-07-05T03:08:45.143Z,10.97
2018-07-05T03:11:24.789Z,11.40
2018-07-05T03:14:04.454Z,12.00
2018-07-05T03:16:44.120Z,12.10
2018-07-05T03:19:23.754Z,11.70
2018-07-05T03:22:03.653Z,11.23
2018-07-05T03:24:43.424Z,12.03
2018-07-05T03:27:23.085Z,12.10
2018-07-05T03:30:02.689Z,11.77
2018-07-05T03:32:42.380Z,12.27
2018-07-05T03:35:22.015Z,11.63
2018-07-05T03:38:01.711Z,11.40
2018-07-05T03:40:41.401Z,10.13
2018-07-05T03:43:21.058Z,9.97
2018-07-05T03:46:00.761Z,9.73
2018-07-05T03:48:40.353Z,9.57
2018-07-05T03:51:19.994Z,10.47
2018-07-05T03:53:59.723Z,11.43
2018-07-05T03:56:39.369Z,11.80
2018-07-05T03:59:18.912Z,13.07
2018-07-05T04:01:58.622Z,14.57
2018-07-05T04:04:38.251Z,14.27
2018-07-05T04:07:17.946Z,13.97
2018-07-05T04:09:57.596Z,13.63
2018-07-05T04:12:37.332Z,14.83
2018-07-05T04:15:16.992Z,13.33
2018-07-05T04:17:56.620Z,13.93
2018-07-05T04:20:36.267Z,13.70
2018-07-05T04:23:15.985Z,13.40
2018-07-05T04:25:55.546Z,13.90
2018-07-05T04:28:35.211Z,14.07
2018-07-05T04:31:14.921Z,14.30
2018-07-05T04:33:54.474Z,13.77
2018-07-05T04:36:33.877Z,14.00
2018-07-05T04:39:13.513Z,13.30
2018-07-05T04:41:53.732Z,13.90
2018-07-05T04:44:33.314Z,13.70
2018-07-05T04:47:13.047Z,13.10
2018-07-05T04:49:52.793Z,13.77
2018-07-05T04:52:32.508Z,13.53
2018-07-05T04:55:12.225Z,13.10
2018-07-05T04:57:51.885Z,11.90
2018-07-05T05:00:31.559Z,11.37
2018-07-05T05:03:11.371Z,11.20
2018-07-05T05:05:51.184Z,10.53
2018-07-05T05:08:30.910Z,9.60
2018-07-05T05:11:10.460Z,9.77
2018-07-05T05:13:50.061Z,9.70
2018-07-05T05:16:29.730Z,10.50
2018-07-05T05:19:09.367Z,10.23
2018-07-05T05:21:49.033Z,9.90
2018-07-05T05:24:28.654Z,7.97
2018-07-05T05:27:08.291Z,9.10
2018-07-05T05:29:47.958Z,9.93
2018-07-05T05:32:27.622Z,10.60
2018-07-05T05:35:07.292Z,9.10
2018-07-05T05:37:46.979Z,9.73
2018-07-05T05:40:27.168Z,9.33
2018-07-05T05:43:07.276Z,9.03
2018-07-05T05:45:46.956Z,8.70
2018-07-05T05:48:27.019Z,7.58
2018-07-05T05:51:06.862Z,5.97
2018-07-05T05:53:46.948Z,6.47
2018-07-05T05:56:26.719Z,6.70
2018-07-05T05:59:06.152Z,7.63
2018-07-05T06:01:45.550Z,6.87
2018-07-05T06:04:25.686Z,7.30
2018-07-05T06:07:05.162Z,7.97
2018-07-05T06:09:44.928Z,8.60
2018-07-05T06:12:24.585Z,8.38
2018-07-05T06:15:04.817Z,8.98
2018-07-05T06:17:44.466Z,8.77
2018-07-05T06:20:24.083Z,8.73
2018-07-05T06:23:04.253Z,8.50
2018-07-05T06:25:44.441Z,9.55
2018-07-05T06:28:24.641Z,9.75
2018-07-05T06:31:04.810Z,9.73
2018-07-05T06:33:45.073Z,8.68
2018-07-05T06:36:25.357Z,8.20
2018-07-05T06:39:06.783Z,8.73
2018-07-05T06:41:47.360Z,8.50
2018-07-05T06:44:27.546Z,8.98
2018-07-05T06:47:07.750Z,8.03
2018-07-05T06:49:48.023Z,6.95
2018-07-05T06:52:28.065Z,6.85
2018-07-05T06:55:08.296Z,4.72
2018-07-05T06:57:48.536Z,5.67
2018-07-05T07:00:28.658Z,6.20
2018-07-05T07:03:08.816Z,6.53
2018-07-05T07:05:48.695Z,6.90
2018-07-05T07:08:28.809Z,5.78
2018-07-05T07:11:08.979Z,5.97
2018-07-05T07:13:49.101Z,7.85
2018-07-05T07:16:29.316Z,6.72
2018-07-05T07:19:10.007Z,6.65
2018-07-05T07:21:50.170Z,6.40
2018-07-05T07:24:30.322Z,6.55
2018-07-05T07:27:10.551Z,6.45
2018-07-05T07:29:50.762Z,6.25
2018-07-05T07:32:30.924Z,6.00
2018-07-05T07:35:11.145Z,5.92
2018-07-05T07:37:51.403Z,6.45
2018-07-05T07:40:31.532Z,6.60
2018-07-05T07:42:59.390Z,7.28
2018-07-05T07:45:27.247Z,6.53
2018-07-05T07:47:55.272Z,6.33
2018-07-05T07:50:23.119Z,6.90
2018-07-05T07:52:51.774Z,6.85
2018-07-05T07:55:19.586Z,7.05
2018-07-05T07:57:56.437Z,6.62
2018-07-05T08:00:24.258Z,6.65
2018-07-05T08:02:52.107Z,7.20
2018-07-05T08:05:19.667Z,6.97
2018-07-05T08:07:50.960Z,6.30
2018-07-05T08:10:18.831Z,6.97
2018-07-05T08:12:46.686Z,6.47
2018-07-05T08:15:14.613Z,6.00
2018-07-05T08:17:42.469Z,5.62
2018-07-05T08:20:10.524Z,4.15
2018-07-05T08:22:47.693Z,3.60
2018-07-05T08:25:15.499Z,3.67
2018-07-05T08:27:43.310Z,3.30
2018-07-05T08:30:11.128Z,3.50
2018-07-05T08:32:39.240Z,2.55
2018-07-05T08:35:07.833Z,2.72
2018-07-05T08:37:38.922Z,2.37
2018-07-05T08:40:06.736Z,2.00
2018-07-05T08:42:34.544Z,1.42
2018-07-05T08:45:02.382Z,1.47
2018-07-05T08:47:30.195Z,1.52
2018-07-05T08:52:31.526Z,1.65
2018-07-05T08:55:03.388Z,1.50
2018-07-05T08:57:31.559Z,1.57
2018-07-05T08:59:59.531Z,1.32
2018-07-05T09:02:27.354Z,1.62
2018-07-05T09:04:55.060Z,1.60
2018-07-05T09:07:25.953Z,1.42
2018-07-05T09:09:57.091Z,1.20
2018-07-05T09:12:25.186Z,1.75
2018-07-05T09:14:53.778Z,1.70
2018-07-05T09:17:21.637Z,2.00
2018-07-05T09:19:49.623Z,2.27
2018-07-05T09:22:17.457Z,2.15
2018-07-05T09:24:45.500Z,2.20
2018-07-05T09:27:13.344Z,2.40
2018-07-05T09:29:41.156Z,2.25
2018-07-05T09:32:08.999Z,2.10
2018-07-05T09:34:36.828Z,2.08
2018-07-05T09:37:08.638Z,1.60
2018-07-05T09:39:36.650Z,1.70
2018-07-05T09:42:04.497Z,1.25
2018-07-05T09:44:35.399Z,1.42
2018-07-05T09:47:03.358Z,1.52
2018-07-05T09:49:31.337Z,1.30
2018-07-05T09:52:02.114Z,1.35
2018-07-05T09:54:39.276Z,1.17
2018-07-05T09:57:07.393Z,1.10
2018-07-05T09:59:35.232Z,1.12
2018-07-05T10:02:03.089Z,1.10
2018-07-05T10:04:30.926Z,0.90
2018-07-05T10:06:58.769Z,1.10
2018-07-05T10:09:26.595Z,0.70
2018-07-05T10:11:54.473Z,1.00
2018-07-05T10:14:22.350Z,1.10
2018-07-05T10:16:50.162Z,0.82
2018-07-05T10:19:18.029Z,1.22
2018-07-05T10:21:46.036Z,1.10
2018-07-05T10:24:13.838Z,1.10
2018-07-05T10:26:47.973Z,0.85
2018-07-05T10:29:28.059Z,1.20
2018-07-05T10:32:08.145Z,0.80
2018-07-05T10:34:35.980Z,0.82
2018-07-05T10:37:03.846Z,1.00
2018-07-05T10:39:31.708Z,0.75
2018-07-05T10:42:12.005Z,1.00
2018-07-05T10:44:46.130Z,0.90
2018-07-05T10:47:20.119Z,0.70
2018-07-05T10:50:00.149Z,0.90
2018-07-05T10:52:40.173Z,0.82
2018-07-05T10:55:20.550Z,0.80
2018-07-05T10:58:01.157Z,1.12
2018-07-05T11:00:41.438Z,0.75
2018-07-05T11:03:21.697Z,1.05
2018-07-05T11:06:01.814Z,1.22
2018-07-05T11:08:41.941Z,1.00
2018-07-05T11:11:22.203Z,1.00
2018-07-05T11:14:02.443Z,0.93
2018-07-05T11:16:42.631Z,1.07
2018-07-05T11:19:23.028Z,1.02
2018-07-05T11:22:02.965Z,0.95
2018-07-05T11:24:43.312Z,0.90
2018-07-05T11:27:23.518Z,1.10
2018-07-05T11:30:03.620Z,1.05
2018-07-05T11:32:43.838Z,1.20
2018-07-05T11:35:24.025Z,1.10
2018-07-05T11:38:04.198Z,1.07
2018-07-05T11:40:44.471Z,1.10
2018-07-05T11:43:24.713Z,1.30
2018-07-05T11:48:58.342Z,0.93
2018-07-05T11:51:38.543Z,1.00
2018-07-05T11:54:18.688Z,1.00
2018-07-05T11:56:58.926Z,0.98
2018-07-05T11:59:39.038Z,0.90
2018-07-05T12:02:19.361Z,0.80
2018-07-05T12:04:59.574Z,1.10
2018-07-05T12:07:33.931Z,1.00
2018-07-05T12:13:11.109Z,1.17
2018-07-05T12:15:51.446Z,1.12
2018-07-05T12:18:31.811Z,1.20
2018-07-05T12:21:11.979Z,1.35
2018-07-05T12:23:52.179Z,1.27
2018-07-05T12:26:32.414Z,1.10
2018-07-05T12:29:12.542Z,1.40
2018-07-05T12:31:52.860Z,1.30
2018-07-05T12:34:27.166Z,1.20
2018-07-05T12:37:07.381Z,1.17
2018-07-05T12:39:48.083Z,1.20
2018-07-05T12:42:28.201Z,1.30
2018-07-05T12:45:08.561Z,1.02
2018-07-05T12:47:48.533Z,1.20
2018-07-05T12:50:29.036Z,1.20
2018-07-05T12:53:09.193Z,1.40
2018-07-05T13:01:37.212Z,1.30
2018-07-05T13:04:17.607Z,1.25
2018-07-05T13:06:57.755Z,1.55
2018-07-05T13:09:38.014Z,1.50
2018-07-05T13:12:18.452Z,1.30
2018-07-05T13:14:58.422Z,1.40
2018-07-05T13:17:38.567Z,1.50
2018-07-05T13:20:18.646Z,1.52
2018-07-05T13:28:45.611Z,1.60
2018-07-05T13:31:27.359Z,1.50
2018-07-05T13:34:07.428Z,1.40
2018-07-05T13:36:47.454Z,1.67
2018-07-05T13:39:21.897Z,1.77
2018-07-05T13:42:02.136Z,1.90
2018-07-05T13:44:36.363Z,1.85
2018-07-05T13:47:16.563Z,2.10
2018-07-05T13:49:56.775Z,2.05
2018-07-05T13:52:36.965Z,2.70
2018-07-05T13:55:17.156Z,2.77
2018-07-05T13:57:57.314Z,2.12
2018-07-05T14:00:37.591Z,1.52
2018-07-05T14:03:17.825Z,1.30
2018-07-05T14:05:57.958Z,1.80
2018-07-05T14:08:38.162Z,1.30
2018-07-05T14:11:18.290Z,1.60
2018-07-05T14:13:58.400Z,1.57
2018-07-05T14:16:38.640Z,2.30
2018-07-05T14:19:18.855Z,2.40
2018-07-05T14:21:59.056Z,1.77
2018-07-05T14:24:39.314Z,1.90
2018-07-05T14:27:19.675Z,1.60
2018-07-05T14:29:59.968Z,1.30
2018-07-05T14:32:40.075Z,1.30
2018-07-05T14:35:20.168Z,1.95
2018-07-05T14:38:00.411Z,2.20
2018-07-05T14:40:34.770Z,2.15
2018-07-05T14:43:14.866Z,1.77
2018-07-05T14:45:55.020Z,2.00
2018-07-05T14:48:35.491Z,1.80
2018-07-05T14:51:15.786Z,1.70
2018-07-05T14:53:55.670Z,1.87
2018-07-05T14:56:35.602Z,2.60
2018-07-05T14:59:15.530Z,1.90
2018-07-05T15:01:55.556Z,1.80
2018-07-05T15:04:35.408Z,1.60
2018-07-05T15:07:15.372Z,1.93
2018-07-05T15:09:55.480Z,2.10
2018-07-05T15:12:35.402Z,1.43
2018-07-05T15:15:15.982Z,1.50
2018-07-05T15:17:55.856Z,1.43
2018-07-05T15:20:35.678Z,1.50
2018-07-05T15:23:15.514Z,1.53
2018-07-05T15:25:55.394Z,1.50
2018-07-05T15:28:35.545Z,1.30
2018-07-05T15:31:15.515Z,1.60
2018-07-05T15:33:55.572Z,1.73
2018-07-05T15:36:35.523Z,1.70
2018-07-05T15:39:15.551Z,1.60
2018-07-05T15:41:55.673Z,2.00
2018-07-05T15:44:35.637Z,1.53
2018-07-05T15:47:15.584Z,1.70
2018-07-05T15:49:55.386Z,1.67
2018-07-05T15:52:35.352Z,1.27
2018-07-05T15:55:15.293Z,1.30
2018-07-05T15:57:55.221Z,1.50
2018-07-05T16:00:35.157Z,1.40
2018-07-05T16:03:15.252Z,1.63
2018-07-05T16:05:55.165Z,1.60
2018-07-05T16:08:34.948Z,1.60
2018-07-05T16:11:14.879Z,1.67
2018-07-05T16:13:54.782Z,1.43
2018-07-05T16:16:34.626Z,1.50
2018-07-05T16:19:14.672Z,1.40
2018-07-05T16:21:54.626Z,1.60
2018-07-05T16:24:34.401Z,1.40
2018-07-05T16:27:14.440Z,1.30
2018-07-05T16:29:54.351Z,1.50
2018-07-05T16:32:34.365Z,1.40
2018-07-05T16:35:14.394Z,1.70
2018-07-05T16:37:54.460Z,1.50
2018-07-05T16:40:34.323Z,1.67
2018-07-05T16:43:14.141Z,1.40
2018-07-05T16:45:54.170Z,1.60
2018-07-05T16:48:34.103Z,1.33
2018-07-05T16:51:13.966Z,1.60
2018-07-05T16:53:53.878Z,1.57
2018-07-05T16:56:33.785Z,1.57
2018-07-05T16:59:13.756Z,1.70
2018-07-05T17:01:53.945Z,1.67
2018-07-05T17:04:33.782Z,1.40
2018-07-05T17:07:13.617Z,1.70
2018-07-05T17:09:55.632Z,1.50
2018-07-05T17:12:35.630Z,1.50
2018-07-05T17:15:15.545Z,1.90
2018-07-05T17:17:55.613Z,1.57
2018-07-05T17:20:35.646Z,1.70
2018-07-05T17:23:15.514Z,2.00
2018-07-05T17:25:55.309Z,1.93
2018-07-05T17:28:35.394Z,1.93
2018-07-05T17:31:15.619Z,1.80
2018-07-05T17:33:55.830Z,1.60
2018-07-05T17:36:35.969Z,1.57
2018-07-05T17:39:16.094Z,1.42
2018-07-05T17:41:56.309Z,1.40
2018-07-05T17:44:36.492Z,1.85
2018-07-05T17:47:16.764Z,1.57
2018-07-05T17:49:58.327Z,1.50
2018-07-05T17:52:38.469Z,1.50
2018-07-05T17:55:18.642Z,1.37
2018-07-05T17:57:58.840Z,1.60
2018-07-05T18:00:38.964Z,1.80
2018-07-05T18:03:19.256Z,1.90
2018-07-05T18:05:59.075Z,1.80
2018-07-05T18:08:39.242Z,1.87
2018-07-05T18:11:19.838Z,1.67
2018-07-05T18:13:59.988Z,1.75
2018-07-05T18:16:40.036Z,1.60
2018-07-05T18:19:20.161Z,1.70
2018-07-05T18:22:00.320Z,2.00
2018-07-05T18:24:40.469Z,1.90
2018-07-05T18:27:20.571Z,1.72
2018-07-05T18:30:00.699Z,2.40
2018-07-05T18:32:41.092Z,1.90
2018-07-05T18:35:21.151Z,2.50
2018-07-05T18:38:01.271Z,2.70
2018-07-05T18:40:41.476Z,2.77
2018-07-05T18:43:21.879Z,3.10
2018-07-05T18:46:02.016Z,3.40
2018-07-05T18:48:42.139Z,3.30
2018-07-05T18:51:22.298Z,3.40
2018-07-05T18:54:05.720Z,3.33
2018-07-05T18:56:46.063Z,4.10
2018-07-05T18:59:26.091Z,3.70
2018-07-05T19:02:06.344Z,4.12
2018-07-05T19:04:46.759Z,4.58
2018-07-05T19:07:26.815Z,3.98
2018-07-05T19:10:06.872Z,4.62
2018-07-05T19:12:47.050Z,4.50
2018-07-05T19:15:27.288Z,4.30
2018-07-05T19:18:07.307Z,4.72
2018-07-05T19:20:47.524Z,4.30
2018-07-05T19:23:27.809Z,4.53
2018-07-05T19:26:08.138Z,4.83
2018-07-05T19:28:42.462Z,4.65
2018-07-05T19:31:22.630Z,4.28
2018-07-05T19:34:12.384Z,4.78
2018-07-05T19:36:52.573Z,4.22
2018-07-05T19:39:32.592Z,4.00
2018-07-05T19:42:12.825Z,3.75
2018-07-05T19:44:56.084Z,4.35
2018-07-05T19:47:36.246Z,4.05
2018-07-05T19:50:16.428Z,4.30
2018-07-05T19:52:56.574Z,4.25
2018-07-05T19:58:30.725Z,4.10
2018-07-05T20:01:10.842Z,4.33
2018-07-05T20:03:50.477Z,4.90
2018-07-05T20:06:30.468Z,5.50
2018-07-05T20:09:14.351Z,4.62
2018-07-05T20:12:03.165Z,4.85
2018-07-05T20:14:43.768Z,4.78
2018-07-05T20:17:23.630Z,4.58
2018-07-05T20:20:07.682Z,4.17
2018-07-05T20:22:47.443Z,4.50
2018-07-05T20:25:30.297Z,4.53
2018-07-05T20:28:19.468Z,4.53
2018-07-05T20:31:02.237Z,4.43
2018-07-05T20:33:41.936Z,4.33
2018-07-05T20:36:21.677Z,4.97
2018-07-05T20:39:01.272Z,4.50
2018-07-05T20:41:44.427Z,4.83
2018-07-05T20:44:27.867Z,4.70
2018-07-05T20:47:10.762Z,5.00
2018-07-05T20:49:50.276Z,4.70
2018-07-05T20:52:33.129Z,5.23
2018-07-05T20:55:19.197Z,5.07
2018-07-05T20:57:59.570Z,5.13
2018-07-05T21:00:39.283Z,5.60
2018-07-05T21:03:19.017Z,5.33
2018-07-05T21:05:58.478Z,4.93
2018-07-05T21:08:38.483Z,5.77
2018-07-05T21:11:18.010Z,5.87
2018-07-05T21:13:57.703Z,6.07
2018-07-05T21:16:37.401Z,6.33
2018-07-05T21:19:17.086Z,6.40
2018-07-05T21:21:56.732Z,6.83
2018-07-05T21:24:36.587Z,7.53
2018-07-05T21:27:16.292Z,7.10
2018-07-05T21:29:56.004Z,8.17
2018-07-05T21:32:35.833Z,7.77
2018-07-05T21:35:15.382Z,8.03
2018-07-05T21:37:55.360Z,8.43
2018-07-05T21:40:34.991Z,9.50
2018-07-05T21:43:14.681Z,8.83
2018-07-05T21:45:54.367Z,9.90
2018-07-05T21:48:34.015Z,10.10
2018-07-05T21:51:13.705Z,11.33
2018-07-05T21:53:53.360Z,10.80
2018-07-05T21:56:33.149Z,11.47
2018-07-05T21:59:12.765Z,11.93
2018-07-05T22:01:52.254Z,12.77
2018-07-05T22:04:31.918Z,12.80
2018-07-05T22:07:11.550Z,12.40
2018-07-05T22:09:51.223Z,12.40
2018-07-05T22:12:40.100Z,12.43
2018-07-05T22:15:19.652Z,13.77
2018-07-05T22:18:04.736Z,12.53
2018-07-05T22:20:49.843Z,12.07
2018-07-05T22:23:34.927Z,12.83
2018-07-05T22:26:20.111Z,13.23
2018-07-05T22:28:59.219Z,12.07
2018-07-05T22:31:38.934Z,12.93
2018-07-05T22:34:18.649Z,11.80
2018-07-05T22:36:58.328Z,12.50
2018-07-05T22:39:37.984Z,12.57
2018-07-05T22:42:20.744Z,13.43
2018-07-05T22:45:00.443Z,11.17
2018-07-05T22:47:40.155Z,12.17
2018-07-05T22:50:20.136Z,11.93
2018-07-05T22:52:59.801Z,11.57
2018-07-05T22:55:39.544Z,11.97
2018-07-05T22:58:19.399Z,10.33
2018-07-05T23:01:08.629Z,10.97
2018-07-05T23:03:48.195Z,11.17
2018-07-05T23:06:27.843Z,9.77
2018-07-05T23:09:07.402Z,9.33
2018-07-05T23:11:46.968Z,8.80
2018-07-05T23:31:34.995Z,7.13
2018-07-05T23:34:14.603Z,7.97
2018-07-05T23:36:54.306Z,7.63
2018-07-05T23:39:34.020Z,7.60
2018-07-05T23:42:13.695Z,7.97
2018-07-05T23:44:53.240Z,8.00
2018-07-05T23:47:32.933Z,7.87
2018-07-05T23:50:12.505Z,8.00
2018-07-05T23:52:52.214Z,8.00
2018-07-05T23:55:31.825Z,8.97
2018-07-05T23:58:11.493Z,8.80
